createdAt,value
2022-09-17T00:00:35.048Z,92.10
2022-09-17T00:03:31.965Z,92.10
2022-09-17T00:06:21.061Z,92.10
2022-09-17T00:09:09.964Z,92.10
2022-09-17T00:11:58.465Z,92.10
2022-09-17T00:14:46.827Z,92.10
2022-09-17T00:17:36.874Z,92.10
2022-09-17T00:20:25.404Z,92.10
2022-09-17T00:23:15.572Z,92.10
2022-09-17T00:26:07.840Z,92.10
2022-09-17T00:28:58.612Z,92.10
2022-09-17T00:31:47.189Z,92.10
2022-09-17T00:34:37.755Z,92.10
2022-09-17T00:37:25.835Z,92.10
2022-09-17T00:40:14.207Z,92.10
2022-09-17T00:43:02.603Z,92.10
2022-09-17T00:45:53.498Z,92.10
2022-09-17T00:48:42.134Z,92.10
2022-09-17T00:51:36.817Z,92.10
2022-09-17T00:54:26.578Z,92.10
2022-09-17T00:57:15.631Z,92.10
2022-09-17T01:00:06.068Z,92.10
2022-09-17T01:02:55.369Z,92.10
2022-09-17T01:05:48.633Z,92.10
2022-09-17T01:08:54.709Z,92.10
2022-09-17T01:12:01.646Z,92.10
2022-09-17T01:15:09.983Z,92.20
2022-09-17T01:18:11.129Z,92.10
2022-09-17T01:21:14.221Z,92.10
2022-09-17T01:25:01.238Z,92.20
2022-09-17T01:28:29.381Z,92.40
2022-09-17T01:31:31.674Z,92.20
2022-09-17T01:34:27.413Z,92.20
2022-09-17T01:37:19.399Z,92.20
2022-09-17T01:40:13.790Z,92.20
2022-09-17T01:43:09.840Z,92.20
2022-09-17T01:46:03.177Z,92.10
2022-09-17T01:48:57.951Z,92.10
2022-09-17T01:51:49.445Z,92.10
2022-09-17T01:54:42.584Z,92.10
2022-09-17T01:57:37.723Z,92.20
2022-09-17T02:00:26.331Z,92.10
2022-09-17T02:03:18.721Z,92.10
2022-09-17T02:06:14.566Z,92.10
2022-09-17T02:09:07.125Z,92.10
2022-09-17T02:11:59.096Z,92.10
2022-09-17T02:14:51.807Z,92.10
2022-09-17T02:17:46.156Z,92.10
2022-09-17T02:20:42.090Z,92.10
2022-09-17T02:23:35.633Z,92.20
2022-09-17T02:26:26.448Z,92.20
2022-09-17T02:29:27.642Z,92.20
2022-09-17T02:32:16.313Z,92.20
2022-09-17T02:35:04.453Z,92.20
2022-09-17T02:37:53.334Z,92.10
2022-09-17T02:40:49.267Z,92.20
2022-09-17T02:43:44.268Z,92.20
2022-09-17T02:46:51.322Z,92.20
2022-09-17T02:50:03.375Z,92.20
2022-09-17T02:53:08.152Z,92.20
2022-09-17T02:56:15.501Z,92.20
2022-09-17T02:59:13.286Z,92.20
2022-09-17T03:02:07.330Z,92.20
2022-09-17T03:04:57.750Z,92.20
2022-09-17T03:07:46.764Z,92.20
2022-09-17T03:10:35.071Z,92.20
2022-09-17T03:13:24.699Z,92.20
2022-09-17T03:16:12.823Z,92.20
2022-09-17T03:19:01.459Z,92.20
2022-09-17T03:21:50.140Z,92.20
2022-09-17T03:24:39.334Z,92.20
2022-09-17T03:27:27.769Z,92.20
2022-09-17T03:30:17.775Z,92.20
2022-09-17T03:33:05.947Z,92.20
2022-09-17T03:35:54.331Z,92.20
2022-09-17T03:38:42.697Z,92.20
2022-09-17T03:41:31.001Z,92.20
2022-09-17T03:44:19.829Z,92.20
2022-09-17T03:47:09.717Z,92.20
2022-09-17T03:49:58.191Z,92.20
2022-09-17T03:52:46.619Z,92.20
2022-09-17T03:55:34.958Z,92.20
2022-09-17T03:58:23.901Z,92.20
2022-09-17T04:01:12.286Z,92.20
2022-09-17T04:04:02.207Z,92.20
2022-09-17T04:06:50.746Z,92.20
2022-09-17T04:09:38.888Z,92.20
2022-09-17T04:12:27.749Z,92.20
2022-09-17T04:15:16.285Z,92.20
2022-09-17T04:18:04.812Z,92.20
2022-09-17T04:20:54.740Z,92.20
2022-09-17T04:23:43.191Z,92.20
2022-09-17T04:26:31.603Z,92.10
2022-09-17T04:29:19.881Z,92.10
2022-09-17T04:32:08.871Z,92.10
2022-09-17T04:34:58.161Z,92.10
2022-09-17T04:37:54.639Z,92.10
2022-09-17T04:40:43.861Z,92.00
2022-09-17T04:43:32.542Z,92.00
2022-09-17T04:46:20.992Z,92.00
2022-09-17T04:49:09.959Z,92.00
2022-09-17T04:51:58.555Z,91.90
2022-09-17T04:54:48.184Z,92.00
2022-09-17T04:57:37.188Z,92.00
2022-09-17T05:00:26.354Z,92.00
2022-09-17T05:03:14.480Z,92.10
2022-09-17T05:06:02.556Z,92.10
2022-09-17T05:08:50.909Z,92.10
2022-09-17T05:11:40.780Z,92.10
2022-09-17T05:14:29.198Z,92.10
2022-09-17T05:17:17.580Z,92.10
2022-09-17T05:20:06.023Z,92.10
2022-09-17T05:22:55.748Z,92.10
2022-09-17T05:25:44.056Z,92.20
2022-09-17T05:28:34.306Z,92.20
2022-09-17T05:31:22.398Z,92.20
2022-09-17T05:34:10.961Z,92.10
2022-09-17T05:36:59.400Z,92.10
2022-09-17T05:39:47.868Z,92.10
2022-09-17T05:42:36.679Z,92.10
2022-09-17T05:45:26.298Z,92.10
2022-09-17T05:48:15.981Z,92.20
2022-09-17T05:51:04.542Z,92.20
2022-09-17T05:53:55.428Z,92.20
2022-09-17T05:56:44.197Z,92.20
2022-09-17T05:59:32.546Z,92.10
2022-09-17T06:02:22.745Z,92.20
2022-09-17T06:05:11.313Z,92.10
2022-09-17T06:07:59.942Z,92.10
2022-09-17T06:10:48.747Z,92.10
2022-09-17T06:13:37.523Z,92.20
2022-09-17T06:16:26.344Z,92.20
2022-09-17T06:19:16.042Z,92.20
2022-09-17T06:22:05.984Z,92.20
2022-09-17T06:24:54.844Z,92.20
2022-09-17T06:27:43.428Z,92.20
2022-09-17T06:30:32.059Z,92.20
2022-09-17T06:33:20.635Z,92.20
2022-09-17T06:36:14.433Z,92.20
2022-09-17T06:39:02.851Z,92.20
2022-09-17T06:41:51.794Z,92.20
2022-09-17T06:44:41.216Z,92.20
2022-09-17T06:47:30.241Z,92.20
2022-09-17T06:50:18.428Z,92.20
2022-09-17T06:53:08.476Z,92.20
2022-09-17T06:56:02.312Z,92.20
2022-09-17T06:58:53.433Z,92.20
2022-09-17T07:01:41.954Z,92.20
2022-09-17T07:04:30.339Z,92.20
2022-09-17T07:07:19.037Z,92.20
2022-09-17T07:10:09.970Z,92.20
2022-09-17T07:12:59.247Z,92.10
2022-09-17T07:15:54.695Z,92.10
2022-09-17T07:18:43.498Z,92.10
2022-09-17T07:21:31.935Z,92.10
2022-09-17T07:24:20.633Z,92.10
2022-09-17T07:27:10.439Z,92.10
2022-09-17T07:29:59.964Z,92.10
2022-09-17T07:32:48.368Z,92.10
2022-09-17T07:35:36.899Z,92.10
2022-09-17T07:38:25.616Z,92.10
2022-09-17T07:41:16.184Z,92.10
2022-09-17T07:44:06.989Z,92.10
2022-09-17T07:46:55.339Z,92.10
2022-09-17T07:49:43.664Z,92.20
2022-09-17T07:52:31.732Z,92.20
2022-09-17T07:55:20.304Z,92.20
2022-09-17T07:58:08.977Z,92.20
2022-09-17T08:01:03.355Z,92.20
2022-09-17T08:03:53.388Z,92.20
2022-09-17T08:06:42.264Z,92.20
2022-09-17T08:09:30.281Z,92.20
2022-09-17T08:12:19.620Z,92.20
2022-09-17T08:15:08.958Z,92.20
2022-09-17T08:17:58.457Z,92.20
2022-09-17T08:20:46.784Z,92.20
2022-09-17T08:23:37.322Z,92.30
2022-09-17T08:26:27.196Z,92.30
2022-09-17T08:29:15.913Z,92.30
2022-09-17T08:32:04.739Z,92.30
2022-09-17T08:34:58.159Z,92.30
2022-09-17T08:37:47.694Z,92.30
2022-09-17T08:40:44.764Z,92.30
2022-09-17T08:43:35.354Z,92.30
2022-09-17T08:46:26.061Z,92.30
2022-09-17T08:49:24.829Z,92.30
2022-09-17T08:52:52.826Z,92.30
2022-09-17T08:55:45.022Z,92.30
2022-09-17T08:58:57.846Z,92.30
2022-09-17T09:01:56.114Z,92.30
2022-09-17T09:05:00.322Z,92.30
2022-09-17T09:07:54.362Z,92.30
2022-09-17T09:10:50.928Z,92.30
2022-09-17T09:13:44.057Z,92.30
2022-09-17T09:16:34.189Z,92.30
2022-09-17T09:19:25.982Z,92.30
2022-09-17T09:22:30.467Z,92.30
2022-09-17T09:25:27.222Z,92.30
2022-09-17T09:28:30.564Z,92.30
2022-09-17T09:31:42.728Z,92.30
2022-09-17T09:34:33.914Z,92.20
2022-09-17T09:37:28.158Z,91.90
2022-09-17T09:40:31.870Z,91.60
2022-09-17T09:43:29.627Z,91.50
2022-09-17T09:47:12.408Z,91.20
2022-09-17T09:50:09.779Z,91.10
2022-09-17T09:53:07.924Z,91.00
2022-09-17T09:56:13.612Z,90.90
2022-09-17T09:59:02.421Z,90.90
2022-09-17T10:01:52.620Z,90.80
2022-09-17T10:04:41.279Z,90.90
2022-09-17T10:07:29.951Z,90.80
2022-09-17T10:10:18.285Z,90.90
2022-09-17T10:13:15.296Z,90.80
2022-09-17T10:16:19.934Z,90.70
2022-09-17T10:19:19.974Z,90.70
2022-09-17T10:22:26.046Z,90.80
2022-09-17T10:25:30.994Z,90.70
2022-09-17T10:28:32.147Z,90.60
2022-09-17T10:31:20.515Z,90.70
2022-09-17T10:34:21.409Z,90.60
2022-09-17T10:37:34.415Z,90.70
2022-09-17T10:40:32.499Z,90.80
2022-09-17T10:43:25.379Z,90.90
2022-09-17T10:46:29.371Z,90.80
2022-09-17T10:49:34.378Z,91.00
2022-09-17T10:52:26.859Z,91.10
2022-09-17T10:55:23.884Z,91.10
2022-09-17T10:58:24.602Z,91.10
2022-09-17T11:01:29.635Z,91.10
2022-09-17T11:04:26.917Z,91.00
2022-09-17T11:07:45.657Z,91.00
2022-09-17T11:10:42.060Z,90.90
2022-09-17T11:13:38.166Z,90.90
2022-09-17T11:16:38.293Z,90.90
2022-09-17T11:19:36.493Z,90.90
2022-09-17T11:22:29.377Z,90.90
2022-09-17T11:25:29.924Z,91.00
2022-09-17T11:28:34.307Z,90.90
2022-09-17T11:31:34.791Z,90.80
2022-09-17T11:34:37.834Z,90.80
2022-09-17T11:37:32.735Z,90.70
2022-09-17T11:40:25.493Z,90.90
2022-09-17T11:43:26.216Z,90.80
2022-09-17T11:46:17.818Z,90.70
2022-09-17T11:49:13.887Z,90.80
2022-09-17T11:52:07.833Z,90.80
2022-09-17T11:55:01.175Z,90.90
2022-09-17T11:57:52.045Z,90.80
2022-09-17T12:00:45.957Z,90.80
2022-09-17T12:03:37.468Z,90.80
2022-09-17T12:06:33.679Z,90.80
2022-09-17T12:09:26.201Z,90.60
2022-09-17T12:12:44.858Z,90.50
2022-09-17T12:15:31.045Z,90.50
2022-09-17T12:18:32.694Z,90.50
2022-09-17T12:21:27.543Z,90.50
2022-09-17T12:24:24.400Z,90.50
2022-09-17T12:27:23.644Z,90.50
2022-09-17T12:30:15.719Z,90.50
2022-09-17T12:33:24.884Z,90.30
2022-09-17T12:36:29.634Z,90.20
2022-09-17T12:39:41.133Z,90.60
2022-09-17T12:42:47.076Z,90.50
2022-09-17T12:45:57.088Z,90.50
2022-09-17T12:49:26.159Z,90.20
2022-09-17T12:52:24.067Z,90.20
2022-09-17T12:55:29.887Z,90.30
2022-09-17T12:58:33.712Z,90.10
2022-09-17T13:01:29.984Z,90.40
2022-09-17T13:05:00.117Z,90.00
2022-09-17T13:08:05.720Z,89.80
2022-09-17T13:11:22.104Z,89.80
2022-09-17T13:14:20.547Z,89.60
2022-09-17T13:17:13.091Z,89.50
2022-09-17T13:20:07.059Z,89.50
2022-09-17T13:22:58.445Z,89.30
2022-09-17T13:25:53.895Z,89.00
2022-09-17T13:28:47.466Z,88.40
2022-09-17T13:31:50.227Z,88.40
2022-09-17T13:34:38.970Z,88.70
2022-09-17T13:37:28.548Z,88.40
2022-09-17T13:40:23.198Z,88.10
2022-09-17T13:43:15.466Z,88.20
2022-09-17T13:46:26.143Z,88.70
2022-09-17T13:49:17.585Z,88.40
2022-09-17T13:52:11.540Z,88.70
2022-09-17T13:55:00.718Z,88.60
2022-09-17T13:57:51.991Z,88.20
2022-09-17T14:00:52.322Z,88.60
2022-09-17T14:03:57.660Z,88.40
2022-09-17T14:06:55.118Z,88.00
2022-09-17T14:09:54.259Z,88.10
2022-09-17T14:13:02.189Z,88.30
2022-09-17T14:16:03.604Z,88.10
2022-09-17T14:19:01.852Z,87.90
2022-09-17T14:22:00.852Z,87.90
2022-09-17T14:24:52.649Z,88.20
2022-09-17T14:27:54.951Z,88.10
2022-09-17T14:30:45.361Z,88.30
2022-09-17T14:33:35.788Z,88.10
2022-09-17T14:36:26.061Z,88.20
2022-09-17T14:39:22.763Z,88.70
2022-09-17T14:42:17.545Z,88.40
2022-09-17T14:45:12.041Z,88.80
2022-09-17T14:48:28.777Z,88.70
2022-09-17T14:51:30.467Z,88.80
2022-09-17T14:54:24.096Z,88.60
2022-09-17T14:57:24.915Z,88.40
2022-09-17T15:00:21.854Z,88.20
2022-09-17T15:03:23.013Z,87.90
2022-09-17T15:06:22.504Z,88.00
2022-09-17T15:09:17.945Z,87.40
2022-09-17T15:12:08.559Z,87.80
2022-09-17T15:14:58.648Z,87.60
2022-09-17T15:17:47.083Z,87.90
2022-09-17T15:20:35.943Z,87.60
2022-09-17T15:23:27.461Z,87.70
2022-09-17T15:26:24.057Z,88.50
2022-09-17T15:29:13.891Z,87.70
2022-09-17T15:32:05.612Z,87.70
2022-09-17T15:35:30.207Z,87.40
2022-09-17T15:38:27.400Z,87.30
2022-09-17T15:41:34.154Z,87.30
2022-09-17T15:44:32.136Z,87.10
2022-09-17T15:47:37.669Z,86.90
2022-09-17T15:50:28.275Z,86.70
2022-09-17T15:53:24.459Z,86.90
2022-09-17T15:56:19.071Z,86.80
2022-09-17T15:59:29.836Z,86.70
2022-09-17T16:02:28.131Z,87.00
2022-09-17T16:05:45.868Z,87.10
2022-09-17T16:08:36.150Z,87.10
2022-09-17T16:11:26.342Z,87.30
2022-09-17T16:14:16.136Z,87.60
2022-09-17T16:17:28.207Z,87.60
2022-09-17T16:20:20.208Z,87.70
2022-09-17T16:23:08.655Z,87.70
2022-09-17T16:25:58.283Z,87.90
2022-09-17T16:28:48.521Z,88.10
2022-09-17T16:31:38.607Z,88.20
2022-09-17T16:34:27.084Z,88.50
2022-09-17T16:37:15.917Z,88.70
2022-09-17T16:40:05.203Z,88.80
2022-09-17T16:42:53.438Z,88.80
2022-09-17T16:45:42.082Z,88.70
2022-09-17T16:48:33.680Z,88.70
2022-09-17T16:51:22.299Z,88.70
2022-09-17T16:54:10.621Z,88.70
2022-09-17T16:56:59.166Z,88.70
2022-09-17T16:59:47.292Z,88.70
2022-09-17T17:02:36.119Z,88.60
2022-09-17T17:05:27.255Z,88.60
2022-09-17T17:08:15.935Z,88.60
2022-09-17T17:11:04.414Z,88.50
2022-09-17T17:13:52.699Z,88.50
2022-09-17T17:16:43.679Z,88.60
2022-09-17T17:19:32.188Z,88.60
2022-09-17T17:22:22.735Z,88.60
2022-09-17T17:25:12.585Z,88.60
2022-09-17T17:28:01.505Z,88.60
2022-09-17T17:30:50.344Z,88.60
2022-09-17T17:33:38.647Z,89.20
2022-09-17T17:36:27.105Z,88.70
2022-09-17T17:39:16.688Z,88.70
2022-09-17T17:42:05.889Z,88.80
2022-09-17T17:44:55.664Z,88.80
2022-09-17T17:47:43.521Z,88.80
2022-09-17T17:50:32.582Z,88.80
2022-09-17T17:53:20.744Z,88.80
2022-09-17T17:56:11.980Z,88.80
2022-09-17T17:59:01.327Z,88.80
2022-09-17T18:01:50.156Z,88.80
2022-09-17T18:04:38.639Z,88.80
2022-09-17T18:07:27.495Z,88.80
2022-09-17T18:10:15.694Z,88.80
2022-09-17T18:13:05.607Z,88.80
2022-09-17T18:15:55.769Z,88.80
2022-09-17T18:18:46.276Z,88.80
2022-09-17T18:21:34.405Z,88.90
2022-09-17T18:24:22.797Z,89.00
2022-09-17T18:27:11.371Z,89.00
2022-09-17T18:30:01.503Z,89.10
2022-09-17T18:32:50.020Z,89.00
2022-09-17T18:35:38.694Z,89.00
2022-09-17T18:38:26.968Z,89.00
2022-09-17T18:41:15.335Z,89.00
2022-09-17T18:44:04.331Z,89.00
2022-09-17T18:46:54.171Z,89.00
2022-09-17T18:49:42.194Z,89.00
2022-09-17T18:52:30.765Z,89.00
2022-09-17T18:55:19.215Z,89.00
2022-09-17T18:58:07.824Z,89.00
2022-09-17T19:00:56.019Z,89.00
2022-09-17T19:03:45.928Z,88.90
2022-09-17T19:06:34.044Z,89.00
2022-09-17T19:09:22.377Z,89.00
2022-09-17T19:12:10.832Z,89.00
2022-09-17T19:14:59.080Z,89.10
2022-09-17T19:17:47.256Z,89.00
2022-09-17T19:20:38.662Z,89.10
2022-09-17T19:23:26.988Z,89.10
2022-09-17T19:26:18.459Z,89.10
2022-09-17T19:29:08.542Z,89.10
2022-09-17T19:31:56.753Z,89.20
2022-09-17T19:34:45.098Z,89.20
2022-09-17T19:37:35.071Z,89.20
2022-09-17T19:40:23.338Z,89.20
2022-09-17T19:43:11.906Z,89.30
2022-09-17T19:46:02.693Z,89.30
2022-09-17T19:48:55.169Z,89.30
2022-09-17T19:51:43.264Z,89.30
2022-09-17T19:54:33.203Z,89.40
2022-09-17T19:57:21.747Z,89.40
2022-09-17T20:00:12.126Z,89.50
2022-09-17T20:03:03.718Z,89.50
2022-09-17T20:05:58.962Z,89.50
2022-09-17T20:08:47.888Z,89.50
2022-09-17T20:11:41.321Z,89.60
2022-09-17T20:14:30.087Z,89.60
2022-09-17T20:17:18.406Z,89.60
2022-09-17T20:20:07.507Z,89.60
2022-09-17T20:22:56.617Z,89.70
2022-09-17T20:25:46.057Z,89.70
2022-09-17T20:28:36.419Z,89.70
2022-09-17T20:31:26.018Z,90.10
2022-09-17T20:34:14.413Z,89.80
2022-09-17T20:37:13.235Z,89.80
2022-09-17T20:40:02.250Z,89.80
2022-09-17T20:42:50.977Z,89.80
2022-09-17T20:45:40.592Z,89.90
2022-09-17T20:48:29.029Z,89.90
2022-09-17T20:51:18.911Z,89.80
2022-09-17T20:54:08.498Z,89.90
2022-09-17T20:56:57.448Z,90.00
2022-09-17T20:59:53.296Z,90.00
2022-09-17T21:02:50.357Z,90.00
2022-09-17T21:05:39.608Z,90.00
2022-09-17T21:08:28.725Z,90.00
2022-09-17T21:11:17.764Z,90.20
2022-09-17T21:14:06.883Z,90.20
2022-09-17T21:16:56.395Z,90.00
2022-09-17T21:19:46.267Z,90.00
2022-09-17T21:22:34.572Z,90.00
2022-09-17T21:25:22.984Z,90.00
2022-09-17T21:28:11.429Z,90.00
2022-09-17T21:31:07.052Z,90.00
2022-09-17T21:33:56.869Z,90.00
2022-09-17T21:36:48.292Z,90.00
2022-09-17T21:39:37.134Z,90.00
2022-09-17T21:42:25.823Z,90.10
2022-09-17T21:45:16.756Z,90.00
2022-09-17T21:48:05.118Z,90.10
2022-09-17T21:50:53.265Z,90.10
2022-09-17T21:53:43.709Z,90.10
2022-09-17T21:56:32.856Z,90.10
2022-09-17T21:59:21.285Z,90.10
2022-09-17T22:02:09.512Z,90.10
2022-09-17T22:04:58.117Z,90.10
2022-09-17T22:07:46.754Z,90.10
2022-09-17T22:10:36.702Z,90.10
2022-09-17T22:13:25.011Z,90.10
2022-09-17T22:16:13.515Z,90.30
2022-09-17T22:19:03.187Z,90.10
2022-09-17T22:21:54.084Z,90.10
2022-09-17T22:24:44.568Z,90.10
2022-09-17T22:27:34.516Z,90.10
2022-09-17T22:30:24.408Z,90.10
2022-09-17T22:33:12.577Z,90.10
2022-09-17T22:36:04.556Z,90.10
2022-09-17T22:38:55.139Z,90.10
2022-09-17T22:41:45.876Z,90.10
2022-09-17T22:44:35.635Z,90.10
2022-09-17T22:47:23.897Z,90.10
2022-09-17T22:50:12.489Z,90.10
2022-09-17T22:53:00.853Z,90.10
2022-09-17T22:55:56.225Z,90.10
2022-09-17T22:58:45.328Z,90.10
2022-09-17T23:01:37.440Z,90.10
2022-09-17T23:04:25.857Z,90.10
2022-09-17T23:07:14.261Z,90.10
2022-09-17T23:10:02.884Z,90.10
2022-09-17T23:12:51.332Z,90.10
2022-09-17T23:15:40.272Z,90.10
2022-09-17T23:18:30.682Z,90.10
2022-09-17T23:21:20.435Z,90.10
2022-09-17T23:24:09.381Z,90.10
2022-09-17T23:26:57.840Z,90.10
2022-09-17T23:29:46.615Z,90.10
2022-09-17T23:32:34.489Z,90.20
2022-09-17T23:35:25.522Z,90.20
2022-09-17T23:38:13.871Z,90.20
2022-09-17T23:41:13.432Z,90.20
2022-09-17T23:44:03.637Z,90.20
2022-09-17T23:46:52.190Z,90.20
2022-09-17T23:49:40.447Z,90.20
2022-09-17T23:52:30.080Z,90.20
2022-09-17T23:55:18.398Z,90.20
2022-09-17T23:58:07.995Z,90.20
